KHPN

Westchester County Airport

White Plains, New York, USA
METAR KHPN 160956Z 25005KT 9SM CLR M06/M09 A2992 RMK AO2 SLP143 T10561094
Observed Flight Rules
Dec-16 @ 09:56 UTC (an hour ago) Visual Flight Rules
Wind Visibility Clouds
250° at 5 knots 9 miles
  • Clear skies
Temperatures Readings
Current -6°C / 21°F
Dewpoint -9°C / 16°F
Humidity 80%
Altimeter 29.92" Hg
Pressure 1014.3 hPa
Elevation 121
METAR KHPN 160956Z 25005KT 9SM CLR M06/M09 A2992 RMK AO2 SLP143 T10561094
Observed Flight Rules
Dec-16 @ 09:56 UTC
(an hour ago)
VFR
Wind Visibility
250° at 5 knots 9 miles
Clouds
  • Clear skies
Temperature Dewpoint
-6°C / 21°F -9°C / 16°F
Humidity Altimeter Pressure
80% 29.92" Hg 1014.3 hPa